sensor_id;sensor_type;location;lat;lon;timestamp;temperature;humidity
11264;DHT22;5689;48.798;9.070;2023-05-02T00:02:27;11.00;99.90
11264;DHT22;5689;48.798;9.070;2023-05-02T00:04:55;10.80;99.90
11264;DHT22;5689;48.798;9.070;2023-05-02T00:07:23;10.60;99.90
11264;DHT22;5689;48.798;9.070;2023-05-02T00:09:52;10.40;99.90
11264;DHT22;5689;48.798;9.070;2023-05-02T00:12:20;10.30;99.90
11264;DHT22;5689;48.798;9.070;2023-05-02T00:14:50;10.20;99.90
11264;DHT22;5689;48.798;9.070;2023-05-02T00:17:18;10.30;99.90
11264;DHT22;5689;48.798;9.070;2023-05-02T00:19:47;10.10;99.90
11264;DHT22;5689;48.798;9.070;2023-05-02T00:22:15;10.00;99.90
11264;DHT22;5689;48.798;9.070;2023-05-02T00:24:43;10.00;99.90
11264;DHT22;5689;48.798;9.070;2023-05-02T00:27:11;10.20;99.90
11264;DHT22;5689;48.798;9.070;2023-05-02T00:29:40;10.40;99.90
11264;DHT22;5689;48.798;9.070;2023-05-02T00:32:09;10.40;99.90
11264;DHT22;5689;48.798;9.070;2023-05-02T00:34:37;10.40;99.90
11264;DHT22;5689;48.798;9.070;2023-05-02T00:37:05;10.30;99.90
11264;DHT22;5689;48.798;9.070;2023-05-02T00:39:34;10.40;99.90
11264;DHT22;5689;48.798;9.070;2023-05-02T00:42:02;10.40;99.90
11264;DHT22;5689;48.798;9.070;2023-05-02T00:44:30;10.40;99.90
11264;DHT22;5689;48.798;9.070;2023-05-02T00:47:00;10.40;99.90
11264;DHT22;5689;48.798;9.070;2023-05-02T00:49:29;10.40;99.90
11264;DHT22;5689;48.798;9.070;2023-05-02T00:51:58;10.10;99.90
11264;DHT22;5689;48.798;9.070;2023-05-02T00:54:26;10.10;99.90
11264;DHT22;5689;48.798;9.070;2023-05-02T00:56:54;10.30;99.90
11264;DHT22;5689;48.798;9.070;2023-05-02T00:59:22;10.30;99.90
11264;DHT22;5689;48.798;9.070;2023-05-02T01:01:59;10.20;99.90
11264;DHT22;5689;48.798;9.070;2023-05-02T01:04:46;10.10;99.90
11264;DHT22;5689;48.798;9.070;2023-05-02T01:07:29;10.30;99.90
11264;DHT22;5689;48.798;9.070;2023-05-02T01:10:13;10.40;99.90
11264;DHT22;5689;48.798;9.070;2023-05-02T01:12:47;10.40;99.90
11264;DHT22;5689;48.798;9.070;2023-05-02T01:15:20;10.40;99.90
11264;DHT22;5689;48.798;9.070;2023-05-02T01:17:49;10.40;99.90
11264;DHT22;5689;48.798;9.070;2023-05-02T01:20:22;10.40;99.90
11264;DHT22;5689;48.798;9.070;2023-05-02T01:22:57;10.20;99.90
11264;DHT22;5689;48.798;9.070;2023-05-02T01:25:30;10.20;99.90
11264;DHT22;5689;48.798;9.070;2023-05-02T01:28:09;10.20;99.90
11264;DHT22;5689;48.798;9.070;2023-05-02T01:30:42;10.20;99.90
11264;DHT22;5689;48.798;9.070;2023-05-02T01:33:13;10.30;99.90
11264;DHT22;5689;48.798;9.070;2023-05-02T01:35:43;10.20;99.90
11264;DHT22;5689;48.798;9.070;2023-05-02T01:38:14;10.20;99.90
11264;DHT22;5689;48.798;9.070;2023-05-02T01:40:44;10.30;99.90
11264;DHT22;5689;48.798;9.070;2023-05-02T01:43:14;10.30;99.90
11264;DHT22;5689;48.798;9.070;2023-05-02T01:45:47;10.30;99.90
11264;DHT22;5689;48.798;9.070;2023-05-02T01:48:18;10.30;99.90
11264;DHT22;5689;48.798;9.070;2023-05-02T01:50:48;10.30;99.90
11264;DHT22;5689;48.798;9.070;2023-05-02T01:53:17;10.30;99.90
11264;DHT22;5689;48.798;9.070;2023-05-02T01:55:48;10.40;99.90
11264;DHT22;5689;48.798;9.070;2023-05-02T01:58:17;10.30;99.90
11264;DHT22;5689;48.798;9.070;2023-05-02T02:00:48;10.30;99.90
11264;DHT22;5689;48.798;9.070;2023-05-02T02:03:17;10.40;99.90
11264;DHT22;5689;48.798;9.070;2023-05-02T02:05:47;10.40;99.90
11264;DHT22;5689;48.798;9.070;2023-05-02T02:08:16;10.30;99.90
11264;DHT22;5689;48.798;9.070;2023-05-02T02:10:45;10.30;99.90
11264;DHT22;5689;48.798;9.070;2023-05-02T02:13:17;10.10;99.90
11264;DHT22;5689;48.798;9.070;2023-05-02T02:15:49;10.10;99.90
11264;DHT22;5689;48.798;9.070;2023-05-02T02:18:20;10.20;99.90
11264;DHT22;5689;48.798;9.070;2023-05-02T02:20:50;10.20;99.90
11264;DHT22;5689;48.798;9.070;2023-05-02T02:23:22;10.10;99.90
11264;DHT22;5689;48.798;9.070;2023-05-02T02:25:53;10.00;99.90
11264;DHT22;5689;48.798;9.070;2023-05-02T02:28:22;9.80;99.90
11264;DHT22;5689;48.798;9.070;2023-05-02T02:30:51;9.80;99.90
11264;DHT22;5689;48.798;9.070;2023-05-02T02:33:23;9.90;99.90
11264;DHT22;5689;48.798;9.070;2023-05-02T02:35:59;9.90;99.90
11264;DHT22;5689;48.798;9.070;2023-05-02T02:38:32;9.90;99.90
11264;DHT22;5689;48.798;9.070;2023-05-02T02:41:08;9.90;99.90
11264;DHT22;5689;48.798;9.070;2023-05-02T02:43:45;10.00;99.90
11264;DHT22;5689;48.798;9.070;2023-05-02T02:46:28;10.00;99.90
11264;DHT22;5689;48.798;9.070;2023-05-02T02:49:11;10.00;99.90
11264;DHT22;5689;48.798;9.070;2023-05-02T02:51:45;10.10;99.90
11264;DHT22;5689;48.798;9.070;2023-05-02T02:54:21;10.10;99.90
11264;DHT22;5689;48.798;9.070;2023-05-02T02:56:58;10.00;99.90
11264;DHT22;5689;48.798;9.070;2023-05-02T02:59:31;10.00;99.90
11264;DHT22;5689;48.798;9.070;2023-05-02T03:02:07;10.10;99.90
11264;DHT22;5689;48.798;9.070;2023-05-02T03:04:38;10.20;99.90
11264;DHT22;5689;48.798;9.070;2023-05-02T03:07:07;10.30;99.90
11264;DHT22;5689;48.798;9.070;2023-05-02T03:09:40;10.20;99.90
11264;DHT22;5689;48.798;9.070;2023-05-02T03:12:11;10.30;99.90
11264;DHT22;5689;48.798;9.070;2023-05-02T03:14:40;10.40;99.90
11264;DHT22;5689;48.798;9.070;2023-05-02T03:17:11;10.50;99.90
11264;DHT22;5689;48.798;9.070;2023-05-02T03:19:40;10.50;99.90
11264;DHT22;5689;48.798;9.070;2023-05-02T03:22:08;10.50;99.90
11264;DHT22;5689;48.798;9.070;2023-05-02T03:24:37;10.50;99.90
11264;DHT22;5689;48.798;9.070;2023-05-02T03:27:05;10.50;99.90
11264;DHT22;5689;48.798;9.070;2023-05-02T03:29:38;10.60;99.90
11264;DHT22;5689;48.798;9.070;2023-05-02T03:32:07;10.60;99.90
11264;DHT22;5689;48.798;9.070;2023-05-02T03:34:39;10.70;99.90
11264;DHT22;5689;48.798;9.070;2023-05-02T03:37:07;10.60;99.90
11264;DHT22;5689;48.798;9.070;2023-05-02T03:39:35;10.70;99.90
11264;DHT22;5689;48.798;9.070;2023-05-02T03:42:04;10.70;99.90
11264;DHT22;5689;48.798;9.070;2023-05-02T03:44:32;10.60;99.90
11264;DHT22;5689;48.798;9.070;2023-05-02T03:47:00;10.60;99.90
11264;DHT22;5689;48.798;9.070;2023-05-02T03:49:33;10.70;99.90
11264;DHT22;5689;48.798;9.070;2023-05-02T03:52:03;10.70;99.90
11264;DHT22;5689;48.798;9.070;2023-05-02T03:54:33;10.60;99.90
11264;DHT22;5689;48.798;9.070;2023-05-02T03:57:01;10.60;99.90
11264;DHT22;5689;48.798;9.070;2023-05-02T03:59:32;10.70;99.90
11264;DHT22;5689;48.798;9.070;2023-05-02T04:02:07;10.60;99.90
11264;DHT22;5689;48.798;9.070;2023-05-02T04:04:40;10.70;99.90
11264;DHT22;5689;48.798;9.070;2023-05-02T04:07:11;10.70;99.90
11264;DHT22;5689;48.798;9.070;2023-05-02T04:09:45;10.70;99.90
11264;DHT22;5689;48.798;9.070;2023-05-02T04:12:14;10.70;99.90
11264;DHT22;5689;48.798;9.070;2023-05-02T04:14:46;10.70;99.90
11264;DHT22;5689;48.798;9.070;2023-05-02T04:17:14;10.80;99.90
11264;DHT22;5689;48.798;9.070;2023-05-02T04:19:45;10.70;99.90
11264;DHT22;5689;48.798;9.070;2023-05-02T04:22:15;10.80;99.90
11264;DHT22;5689;48.798;9.070;2023-05-02T04:24:48;10.80;99.90
11264;DHT22;5689;48.798;9.070;2023-05-02T04:27:17;10.80;99.90
11264;DHT22;5689;48.798;9.070;2023-05-02T04:29:47;10.80;99.90
11264;DHT22;5689;48.798;9.070;2023-05-02T04:32:16;10.80;99.90
11264;DHT22;5689;48.798;9.070;2023-05-02T04:34:45;10.80;99.90
11264;DHT22;5689;48.798;9.070;2023-05-02T04:37:15;10.70;99.90
11264;DHT22;5689;48.798;9.070;2023-05-02T04:39:45;10.70;99.90
11264;DHT22;5689;48.798;9.070;2023-05-02T04:42:13;10.70;99.90
11264;DHT22;5689;48.798;9.070;2023-05-02T04:44:49;10.70;99.90
11264;DHT22;5689;48.798;9.070;2023-05-02T04:47:17;10.70;99.90
11264;DHT22;5689;48.798;9.070;2023-05-02T04:49:45;10.80;99.90
11264;DHT22;5689;48.798;9.070;2023-05-02T04:52:13;10.80;99.90
11264;DHT22;5689;48.798;9.070;2023-05-02T04:54:43;10.90;99.90
11264;DHT22;5689;48.798;9.070;2023-05-02T04:57:10;11.00;99.90
11264;DHT22;5689;48.798;9.070;2023-05-02T04:59:43;11.20;99.90
11264;DHT22;5689;48.798;9.070;2023-05-02T05:02:11;11.30;99.90
11264;DHT22;5689;48.798;9.070;2023-05-02T05:04:39;11.30;99.90
11264;DHT22;5689;48.798;9.070;2023-05-02T05:07:07;11.40;99.90
11264;DHT22;5689;48.798;9.070;2023-05-02T05:09:35;11.40;99.90
11264;DHT22;5689;48.798;9.070;2023-05-02T05:12:05;11.40;99.90
11264;DHT22;5689;48.798;9.070;2023-05-02T05:14:34;11.40;99.90
11264;DHT22;5689;48.798;9.070;2023-05-02T05:17:02;11.30;99.90
11264;DHT22;5689;48.798;9.070;2023-05-02T05:19:31;11.00;99.90
11264;DHT22;5689;48.798;9.070;2023-05-02T05:21:59;10.80;99.90
11264;DHT22;5689;48.798;9.070;2023-05-02T05:24:27;10.90;99.90
11264;DHT22;5689;48.798;9.070;2023-05-02T05:26:57;10.90;99.90
11264;DHT22;5689;48.798;9.070;2023-05-02T05:29:27;11.10;99.90
11264;DHT22;5689;48.798;9.070;2023-05-02T05:31:54;11.20;99.90
11264;DHT22;5689;48.798;9.070;2023-05-02T05:34:23;11.30;99.90
11264;DHT22;5689;48.798;9.070;2023-05-02T05:36:54;11.30;99.90
11264;DHT22;5689;48.798;9.070;2023-05-02T05:39:22;11.50;99.90
11264;DHT22;5689;48.798;9.070;2023-05-02T05:41:52;11.40;99.90
11264;DHT22;5689;48.798;9.070;2023-05-02T05:44:22;11.40;99.90
11264;DHT22;5689;48.798;9.070;2023-05-02T05:46:53;11.50;99.90
11264;DHT22;5689;48.798;9.070;2023-05-02T05:49:23;11.30;99.90
11264;DHT22;5689;48.798;9.070;2023-05-02T05:51:52;11.40;99.90
11264;DHT22;5689;48.798;9.070;2023-05-02T05:54:21;11.50;99.90
11264;DHT22;5689;48.798;9.070;2023-05-02T05:56:49;11.60;99.90
11264;DHT22;5689;48.798;9.070;2023-05-02T05:59:18;11.70;99.90
11264;DHT22;5689;48.798;9.070;2023-05-02T06:01:47;11.80;99.90
11264;DHT22;5689;48.798;9.070;2023-05-02T06:04:18;12.10;99.90
11264;DHT22;5689;48.798;9.070;2023-05-02T06:06:48;11.70;99.90
11264;DHT22;5689;48.798;9.070;2023-05-02T06:09:19;11.70;99.90
11264;DHT22;5689;48.798;9.070;2023-05-02T06:11:47;11.70;99.90
11264;DHT22;5689;48.798;9.070;2023-05-02T06:14:15;11.70;99.90
11264;DHT22;5689;48.798;9.070;2023-05-02T06:16:45;11.60;99.90
11264;DHT22;5689;48.798;9.070;2023-05-02T06:19:13;11.60;99.90
11264;DHT22;5689;48.798;9.070;2023-05-02T06:21:42;11.80;99.90
11264;DHT22;5689;48.798;9.070;2023-05-02T06:24:10;11.90;99.90
11264;DHT22;5689;48.798;9.070;2023-05-02T06:26:38;11.90;99.90
11264;DHT22;5689;48.798;9.070;2023-05-02T06:29:06;11.90;99.90
11264;DHT22;5689;48.798;9.070;2023-05-02T06:31:34;12.20;99.90
11264;DHT22;5689;48.798;9.070;2023-05-02T06:34:02;12.30;99.90
11264;DHT22;5689;48.798;9.070;2023-05-02T06:36:30;12.40;99.90
11264;DHT22;5689;48.798;9.070;2023-05-02T06:38:59;12.30;99.90
11264;DHT22;5689;48.798;9.070;2023-05-02T06:41:27;12.40;99.90
11264;DHT22;5689;48.798;9.070;2023-05-02T06:43:55;12.10;99.90
11264;DHT22;5689;48.798;9.070;2023-05-02T06:46:27;11.70;99.90
11264;DHT22;5689;48.798;9.070;2023-05-02T06:48:55;11.60;99.90
11264;DHT22;5689;48.798;9.070;2023-05-02T06:51:23;11.60;99.90
11264;DHT22;5689;48.798;9.070;2023-05-02T06:53:51;11.80;99.90
11264;DHT22;5689;48.798;9.070;2023-05-02T06:56:20;11.70;99.90
11264;DHT22;5689;48.798;9.070;2023-05-02T06:58:48;12.00;99.90
11264;DHT22;5689;48.798;9.070;2023-05-02T07:01:16;12.20;99.90
11264;DHT22;5689;48.798;9.070;2023-05-02T07:03:45;12.30;99.90
11264;DHT22;5689;48.798;9.070;2023-05-02T07:06:13;12.20;99.90
11264;DHT22;5689;48.798;9.070;2023-05-02T07:08:41;12.00;99.90
11264;DHT22;5689;48.798;9.070;2023-05-02T07:11:09;12.20;99.90
11264;DHT22;5689;48.798;9.070;2023-05-02T07:13:38;12.00;99.90
11264;DHT22;5689;48.798;9.070;2023-05-02T07:16:07;12.40;99.90
11264;DHT22;5689;48.798;9.070;2023-05-02T07:18:35;12.40;99.90
11264;DHT22;5689;48.798;9.070;2023-05-02T07:21:03;12.30;99.90
11264;DHT22;5689;48.798;9.070;2023-05-02T07:23:31;12.40;99.90
11264;DHT22;5689;48.798;9.070;2023-05-02T07:25:59;12.60;99.90
11264;DHT22;5689;48.798;9.070;2023-05-02T07:28:26;12.70;99.90
11264;DHT22;5689;48.798;9.070;2023-05-02T07:30:56;12.60;99.90
11264;DHT22;5689;48.798;9.070;2023-05-02T07:33:24;12.70;99.90
11264;DHT22;5689;48.798;9.070;2023-05-02T07:35:52;12.90;99.90
11264;DHT22;5689;48.798;9.070;2023-05-02T07:38:20;12.90;99.90
11264;DHT22;5689;48.798;9.070;2023-05-02T07:40:48;13.10;99.90
11264;DHT22;5689;48.798;9.070;2023-05-02T07:43:16;13.20;99.90
11264;DHT22;5689;48.798;9.070;2023-05-02T07:45:44;13.20;99.90
11264;DHT22;5689;48.798;9.070;2023-05-02T07:48:13;12.70;99.90
11264;DHT22;5689;48.798;9.070;2023-05-02T07:50:41;12.60;99.90
11264;DHT22;5689;48.798;9.070;2023-05-02T07:53:09;12.80;99.90
11264;DHT22;5689;48.798;9.070;2023-05-02T07:55:37;12.60;99.90
11264;DHT22;5689;48.798;9.070;2023-05-02T07:58:05;12.80;99.90
11264;DHT22;5689;48.798;9.070;2023-05-02T08:00:33;12.90;99.90
11264;DHT22;5689;48.798;9.070;2023-05-02T08:03:01;12.70;99.90
11264;DHT22;5689;48.798;9.070;2023-05-02T08:05:31;12.60;99.90
11264;DHT22;5689;48.798;9.070;2023-05-02T08:07:59;12.60;99.90
11264;DHT22;5689;48.798;9.070;2023-05-02T08:10:28;12.90;99.90
11264;DHT22;5689;48.798;9.070;2023-05-02T08:12:56;12.70;99.90
11264;DHT22;5689;48.798;9.070;2023-05-02T08:15:24;12.60;99.90
11264;DHT22;5689;48.798;9.070;2023-05-02T08:17:52;12.80;99.90
11264;DHT22;5689;48.798;9.070;2023-05-02T08:20:20;12.60;99.90
11264;DHT22;5689;48.798;9.070;2023-05-02T08:22:50;12.70;99.90
11264;DHT22;5689;48.798;9.070;2023-05-02T08:25:18;13.00;99.90
11264;DHT22;5689;48.798;9.070;2023-05-02T08:27:46;13.80;99.90
11264;DHT22;5689;48.798;9.070;2023-05-02T08:30:14;13.70;99.90
11264;DHT22;5689;48.798;9.070;2023-05-02T08:32:41;13.90;99.90
11264;DHT22;5689;48.798;9.070;2023-05-02T08:35:09;14.20;99.90
11264;DHT22;5689;48.798;9.070;2023-05-02T08:37:38;14.10;99.90
11264;DHT22;5689;48.798;9.070;2023-05-02T08:40:11;14.50;99.90
11264;DHT22;5689;48.798;9.070;2023-05-02T08:42:41;14.90;99.90
11264;DHT22;5689;48.798;9.070;2023-05-02T08:45:12;14.50;99.90
11264;DHT22;5689;48.798;9.070;2023-05-02T08:47:42;14.90;99.90
11264;DHT22;5689;48.798;9.070;2023-05-02T08:50:11;14.60;99.90
11264;DHT22;5689;48.798;9.070;2023-05-02T08:52:39;14.80;99.90
11264;DHT22;5689;48.798;9.070;2023-05-02T08:55:09;14.90;99.90
11264;DHT22;5689;48.798;9.070;2023-05-02T08:57:40;14.80;99.90
11264;DHT22;5689;48.798;9.070;2023-05-02T09:00:11;14.70;99.90
11264;DHT22;5689;48.798;9.070;2023-05-02T09:02:54;14.90;99.90
11264;DHT22;5689;48.798;9.070;2023-05-02T09:05:26;14.80;99.90
11264;DHT22;5689;48.798;9.070;2023-05-02T09:07:54;14.90;99.90
11264;DHT22;5689;48.798;9.070;2023-05-02T09:10:24;15.20;99.90
11264;DHT22;5689;48.798;9.070;2023-05-02T09:12:55;15.80;99.90
11264;DHT22;5689;48.798;9.070;2023-05-02T09:15:23;16.80;99.90
11264;DHT22;5689;48.798;9.070;2023-05-02T09:17:51;16.80;99.90
11264;DHT22;5689;48.798;9.070;2023-05-02T09:20:19;15.20;99.90
11264;DHT22;5689;48.798;9.070;2023-05-02T09:22:47;15.20;99.90
11264;DHT22;5689;48.798;9.070;2023-05-02T09:25:16;15.70;99.90
11264;DHT22;5689;48.798;9.070;2023-05-02T09:27:53;16.00;99.90
11264;DHT22;5689;48.798;9.070;2023-05-02T09:30:23;15.90;99.90
11264;DHT22;5689;48.798;9.070;2023-05-02T09:32:51;16.10;99.90
11264;DHT22;5689;48.798;9.070;2023-05-02T09:35:21;16.80;99.90
11264;DHT22;5689;48.798;9.070;2023-05-02T09:37:52;16.70;99.90
11264;DHT22;5689;48.798;9.070;2023-05-02T09:40:21;17.00;99.90
11264;DHT22;5689;48.798;9.070;2023-05-02T09:42:51;16.70;99.90
11264;DHT22;5689;48.798;9.070;2023-05-02T09:45:20;16.30;99.90
11264;DHT22;5689;48.798;9.070;2023-05-02T09:47:49;16.20;99.90
11264;DHT22;5689;48.798;9.070;2023-05-02T09:50:33;16.30;99.90
11264;DHT22;5689;48.798;9.070;2023-05-02T09:53:03;16.60;99.90
11264;DHT22;5689;48.798;9.070;2023-05-02T09:55:31;16.50;99.90
11264;DHT22;5689;48.798;9.070;2023-05-02T09:58:00;17.00;99.90
11264;DHT22;5689;48.798;9.070;2023-05-02T10:00:39;17.50;99.90
11264;DHT22;5689;48.798;9.070;2023-05-02T10:03:07;18.70;99.90
11264;DHT22;5689;48.798;9.070;2023-05-02T10:05:36;20.10;99.90
11264;DHT22;5689;48.798;9.070;2023-05-02T10:08:06;19.40;99.90
11264;DHT22;5689;48.798;9.070;2023-05-02T10:10:36;19.70;99.90
11264;DHT22;5689;48.798;9.070;2023-05-02T10:13:06;19.80;99.90
11264;DHT22;5689;48.798;9.070;2023-05-02T10:15:41;19.20;99.90
11264;DHT22;5689;48.798;9.070;2023-05-02T10:18:12;19.80;99.90
11264;DHT22;5689;48.798;9.070;2023-05-02T10:20:43;20.80;99.90
11264;DHT22;5689;48.798;9.070;2023-05-02T10:23:15;21.00;99.90
11264;DHT22;5689;48.798;9.070;2023-05-02T10:25:43;20.50;99.90
11264;DHT22;5689;48.798;9.070;2023-05-02T10:28:13;22.30;97.70
11264;DHT22;5689;48.798;9.070;2023-05-02T10:30:42;22.10;96.70
11264;DHT22;5689;48.798;9.070;2023-05-02T10:33:12;21.70;98.80
11264;DHT22;5689;48.798;9.070;2023-05-02T10:35:43;24.30;95.00
11264;DHT22;5689;48.798;9.070;2023-05-02T10:38:11;23.80;94.10
11264;DHT22;5689;48.798;9.070;2023-05-02T10:40:40;24.80;94.00
11264;DHT22;5689;48.798;9.070;2023-05-02T10:43:14;23.60;93.30
11264;DHT22;5689;48.798;9.070;2023-05-02T10:45:42;21.60;95.10
11264;DHT22;5689;48.798;9.070;2023-05-02T10:48:15;20.70;95.80
11264;DHT22;5689;48.798;9.070;2023-05-02T10:50:45;21.10;97.10
11264;DHT22;5689;48.798;9.070;2023-05-02T10:53:29;21.30;95.80
11264;DHT22;5689;48.798;9.070;2023-05-02T10:56:21;21.00;96.60
11264;DHT22;5689;48.798;9.070;2023-05-02T10:59:26;21.10;93.00
11264;DHT22;5689;48.798;9.070;2023-05-02T11:01:54;21.10;94.70
11264;DHT22;5689;48.798;9.070;2023-05-02T11:04:23;21.80;93.80
11264;DHT22;5689;48.798;9.070;2023-05-02T11:07:16;20.20;95.20
11264;DHT22;5689;48.798;9.070;2023-05-02T11:09:45;19.20;97.40
11264;DHT22;5689;48.798;9.070;2023-05-02T11:12:43;20.80;95.30
11264;DHT22;5689;48.798;9.070;2023-05-02T11:15:15;20.50;95.00
11264;DHT22;5689;48.798;9.070;2023-05-02T11:18:05;19.80;95.00
11264;DHT22;5689;48.798;9.070;2023-05-02T11:20:34;19.60;96.90
11264;DHT22;5689;48.798;9.070;2023-05-02T11:23:22;19.90;97.00
11264;DHT22;5689;48.798;9.070;2023-05-02T11:25:54;21.90;93.60
11264;DHT22;5689;48.798;9.070;2023-05-02T11:28:42;22.90;90.50
11264;DHT22;5689;48.798;9.070;2023-05-02T11:34:45;21.10;94.80
11264;DHT22;5689;48.798;9.070;2023-05-02T11:37:14;23.10;90.90
11264;DHT22;5689;48.798;9.070;2023-05-02T11:39:42;22.40;93.90
11264;DHT22;5689;48.798;9.070;2023-05-02T11:42:10;24.20;90.70
11264;DHT22;5689;48.798;9.070;2023-05-02T11:44:58;25.00;86.50
11264;DHT22;5689;48.798;9.070;2023-05-02T11:47:27;25.20;90.00
11264;DHT22;5689;48.798;9.070;2023-05-02T11:49:56;24.70;84.40
11264;DHT22;5689;48.798;9.070;2023-05-02T11:52:25;21.40;91.50
11264;DHT22;5689;48.798;9.070;2023-05-02T11:54:54;19.50;92.80
11264;DHT22;5689;48.798;9.070;2023-05-02T11:57:22;18.70;92.60
11264;DHT22;5689;48.798;9.070;2023-05-02T11:59:51;18.20;94.00
11264;DHT22;5689;48.798;9.070;2023-05-02T12:02:34;17.50;93.70
11264;DHT22;5689;48.798;9.070;2023-05-02T12:05:05;17.70;93.40
11264;DHT22;5689;48.798;9.070;2023-05-02T12:07:34;17.70;93.60
11264;DHT22;5689;48.798;9.070;2023-05-02T12:10:03;17.90;94.50
11264;DHT22;5689;48.798;9.070;2023-05-02T12:12:31;18.20;95.50
11264;DHT22;5689;48.798;9.070;2023-05-02T12:15:02;18.70;95.10
11264;DHT22;5689;48.798;9.070;2023-05-02T12:17:31;19.70;93.50
11264;DHT22;5689;48.798;9.070;2023-05-02T12:20:01;18.60;95.20
11264;DHT22;5689;48.798;9.070;2023-05-02T12:22:31;18.60;96.70
11264;DHT22;5689;48.798;9.070;2023-05-02T12:24:59;20.00;95.70
11264;DHT22;5689;48.798;9.070;2023-05-02T12:27:29;23.40;91.40
11264;DHT22;5689;48.798;9.070;2023-05-02T12:29:59;24.30;89.20
11264;DHT22;5689;48.798;9.070;2023-05-02T12:32:28;23.10;90.80
11264;DHT22;5689;48.798;9.070;2023-05-02T12:34:57;20.80;90.70
11264;DHT22;5689;48.798;9.070;2023-05-02T12:37:26;22.30;91.70
11264;DHT22;5689;48.798;9.070;2023-05-02T12:39:56;22.70;87.70
11264;DHT22;5689;48.798;9.070;2023-05-02T12:42:24;21.00;90.50
11264;DHT22;5689;48.798;9.070;2023-05-02T12:44:52;19.40;93.30
11264;DHT22;5689;48.798;9.070;2023-05-02T12:47:22;20.90;91.40
11264;DHT22;5689;48.798;9.070;2023-05-02T12:49:51;22.00;88.50
11264;DHT22;5689;48.798;9.070;2023-05-02T12:52:20;22.60;87.60
11264;DHT22;5689;48.798;9.070;2023-05-02T12:54:48;23.00;86.90
11264;DHT22;5689;48.798;9.070;2023-05-02T12:57:25;21.60;89.20
11264;DHT22;5689;48.798;9.070;2023-05-02T12:59:53;20.20;91.20
11264;DHT22;5689;48.798;9.070;2023-05-02T13:02:21;21.20;91.70
11264;DHT22;5689;48.798;9.070;2023-05-02T13:04:49;22.60;90.20
11264;DHT22;5689;48.798;9.070;2023-05-02T13:07:18;23.50;86.90
11264;DHT22;5689;48.798;9.070;2023-05-02T13:09:46;22.40;89.10
11264;DHT22;5689;48.798;9.070;2023-05-02T13:12:14;20.60;90.10
11264;DHT22;5689;48.798;9.070;2023-05-02T13:14:43;20.90;89.50
11264;DHT22;5689;48.798;9.070;2023-05-02T13:17:12;20.60;90.70
11264;DHT22;5689;48.798;9.070;2023-05-02T13:19:40;19.30;91.00
11264;DHT22;5689;48.798;9.070;2023-05-02T13:22:10;21.00;91.30
11264;DHT22;5689;48.798;9.070;2023-05-02T13:24:38;24.20;86.60
11264;DHT22;5689;48.798;9.070;2023-05-02T13:27:06;24.00;85.10
11264;DHT22;5689;48.798;9.070;2023-05-02T13:29:34;23.40;85.50
11264;DHT22;5689;48.798;9.070;2023-05-02T13:32:03;20.90;88.60
11264;DHT22;5689;48.798;9.070;2023-05-02T13:34:31;21.20;89.20
11264;DHT22;5689;48.798;9.070;2023-05-02T13:36:59;22.30;86.30
11264;DHT22;5689;48.798;9.070;2023-05-02T13:39:27;23.80;81.00
11264;DHT22;5689;48.798;9.070;2023-05-02T13:41:55;21.40;85.90
11264;DHT22;5689;48.798;9.070;2023-05-02T13:44:23;19.50;90.30
11264;DHT22;5689;48.798;9.070;2023-05-02T13:46:51;20.00;91.20
11264;DHT22;5689;48.798;9.070;2023-05-02T13:49:21;19.90;90.00
11264;DHT22;5689;48.798;9.070;2023-05-02T13:51:49;20.40;91.30
11264;DHT22;5689;48.798;9.070;2023-05-02T13:54:17;20.50;90.10
11264;DHT22;5689;48.798;9.070;2023-05-02T13:56:45;21.50;91.30
11264;DHT22;5689;48.798;9.070;2023-05-02T13:59:13;22.40;87.40
11264;DHT22;5689;48.798;9.070;2023-05-02T14:01:41;22.80;84.70
11264;DHT22;5689;48.798;9.070;2023-05-02T14:04:09;23.10;83.20
11264;DHT22;5689;48.798;9.070;2023-05-02T14:06:38;22.80;83.80
11264;DHT22;5689;48.798;9.070;2023-05-02T14:09:07;22.60;85.00
11264;DHT22;5689;48.798;9.070;2023-05-02T14:11:35;23.00;85.70
11264;DHT22;5689;48.798;9.070;2023-05-02T14:14:03;23.30;81.90
11264;DHT22;5689;48.798;9.070;2023-05-02T14:16:31;23.90;82.20
11264;DHT22;5689;48.798;9.070;2023-05-02T14:19:00;22.70;80.80
11264;DHT22;5689;48.798;9.070;2023-05-02T14:21:28;23.00;85.70
11264;DHT22;5689;48.798;9.070;2023-05-02T14:23:58;23.90;83.40
11264;DHT22;5689;48.798;9.070;2023-05-02T14:26:26;24.50;78.30
11264;DHT22;5689;48.798;9.070;2023-05-02T14:28:54;23.20;81.50
11264;DHT22;5689;48.798;9.070;2023-05-02T14:31:22;22.60;82.90
11264;DHT22;5689;48.798;9.070;2023-05-02T14:33:51;23.10;83.00
11264;DHT22;5689;48.798;9.070;2023-05-02T14:36:18;21.00;81.70
11264;DHT22;5689;48.798;9.070;2023-05-02T14:38:46;21.00;85.80
11264;DHT22;5689;48.798;9.070;2023-05-02T14:41:16;21.50;84.20
11264;DHT22;5689;48.798;9.070;2023-05-02T14:43:44;23.30;80.80
11264;DHT22;5689;48.798;9.070;2023-05-02T14:46:12;24.10;80.10
11264;DHT22;5689;48.798;9.070;2023-05-02T14:48:40;23.40;78.90
11264;DHT22;5689;48.798;9.070;2023-05-02T14:51:08;22.90;80.00
11264;DHT22;5689;48.798;9.070;2023-05-02T14:53:36;22.60;81.30
11264;DHT22;5689;48.798;9.070;2023-05-02T14:56:10;21.30;84.50
11264;DHT22;5689;48.798;9.070;2023-05-02T14:58:39;22.00;83.80
11264;DHT22;5689;48.798;9.070;2023-05-02T15:01:14;22.30;84.50
11264;DHT22;5689;48.798;9.070;2023-05-02T15:03:43;22.20;83.30
11264;DHT22;5689;48.798;9.070;2023-05-02T15:06:22;23.50;80.60
11264;DHT22;5689;48.798;9.070;2023-05-02T15:08:50;23.50;80.70
11264;DHT22;5689;48.798;9.070;2023-05-02T15:11:18;23.80;80.60
11264;DHT22;5689;48.798;9.070;2023-05-02T15:13:47;23.40;76.90
11264;DHT22;5689;48.798;9.070;2023-05-02T15:16:15;23.30;79.30
11264;DHT22;5689;48.798;9.070;2023-05-02T15:18:43;22.30;80.20
11264;DHT22;5689;48.798;9.070;2023-05-02T15:21:11;22.10;80.70
11264;DHT22;5689;48.798;9.070;2023-05-02T15:23:39;22.80;79.60
11264;DHT22;5689;48.798;9.070;2023-05-02T15:26:07;22.10;81.60
11264;DHT22;5689;48.798;9.070;2023-05-02T15:28:35;21.30;82.00
11264;DHT22;5689;48.798;9.070;2023-05-02T15:31:05;20.50;83.50
11264;DHT22;5689;48.798;9.070;2023-05-02T15:33:33;19.90;85.80
11264;DHT22;5689;48.798;9.070;2023-05-02T15:36:01;19.70;83.00
11264;DHT22;5689;48.798;9.070;2023-05-02T15:38:29;20.50;81.10
11264;DHT22;5689;48.798;9.070;2023-05-02T15:40:59;21.30;80.90
11264;DHT22;5689;48.798;9.070;2023-05-02T15:43:27;21.40;79.40
11264;DHT22;5689;48.798;9.070;2023-05-02T15:45:57;20.60;77.50
11264;DHT22;5689;48.798;9.070;2023-05-02T15:48:28;20.90;77.30
11264;DHT22;5689;48.798;9.070;2023-05-02T15:50:57;21.30;77.00
11264;DHT22;5689;48.798;9.070;2023-05-02T15:53:25;21.70;75.90
11264;DHT22;5689;48.798;9.070;2023-05-02T15:55:53;21.70;76.00
11264;DHT22;5689;48.798;9.070;2023-05-02T15:58:21;21.90;76.10
11264;DHT22;5689;48.798;9.070;2023-05-02T16:00:49;22.60;76.80
11264;DHT22;5689;48.798;9.070;2023-05-02T16:03:17;21.60;77.70
11264;DHT22;5689;48.798;9.070;2023-05-02T16:05:47;21.90;78.20
11264;DHT22;5689;48.798;9.070;2023-05-02T16:08:16;22.00;76.70
11264;DHT22;5689;48.798;9.070;2023-05-02T16:10:44;20.90;78.70